Time;durP1;ratioP1;P1;durP2;ratioP2;P2;SDS_P1;SDS_P2;PMS_P1;PMS_P2;Temp;Humidity;BMP_temperature;BMP_pressure;BME280_temperature;BME280_humidity;BME280_pressure;Samples;Min_cycle;Max_cycle;Signal;HPM_P1;HPM_P2
2022/07/17 00:01:07;;;;;;;12.55;6.85;;;22.00;99.90;;;;;;5027080;28;20524;-54
2022/07/17 00:03:33;;;;;;;12.90;6.78;;;;;;;;;;5025337;28;20473;-54
2022/07/17 00:05:59;;;;;;;8.45;6.18;;;22.00;99.90;;;;;;5024756;28;20056;-54
2022/07/17 00:08:25;;;;;;;8.93;6.90;;;22.00;99.90;;;;;;5027711;28;20476;-54
2022/07/17 00:10:51;;;;;;;11.38;7.10;;;21.90;99.90;;;;;;5027454;28;20032;-53
2022/07/17 00:13:17;;;;;;;10.65;6.03;;;21.90;99.90;;;;;;5027352;28;20087;-53
2022/07/17 00:15:43;;;;;;;11.10;6.40;;;21.80;99.90;;;;;;5024047;28;20033;-53
2022/07/17 00:18:08;;;;;;;7.50;6.28;;;21.80;99.90;;;;;;5021534;28;20104;-53
2022/07/17 00:20:35;;;;;;;11.30;6.53;;;21.80;99.90;;;;;;5023625;28;20049;-54
2022/07/17 00:23:01;;;;;;;10.55;6.97;;;;;;;;;;5024825;28;20029;-54
2022/07/17 00:25:27;;;;;;;9.02;7.05;;;21.70;99.90;;;;;;5023952;28;20543;-54
2022/07/17 00:27:53;;;;;;;12.93;6.90;;;21.70;99.90;;;;;;5022651;28;20131;-53
2022/07/17 00:30:19;;;;;;;9.50;6.45;;;21.60;99.90;;;;;;5022472;28;20132;-54
2022/07/17 00:32:45;;;;;;;12.23;6.30;;;21.60;99.90;;;;;;5024340;28;20096;-53
2022/07/17 00:35:12;;;;;;;10.85;6.47;;;21.70;99.90;;;;;;5024831;28;20117;-53
2022/07/17 00:37:45;;;;;;;10.25;6.82;;;;;;;;;;5023883;28;20040;-53
2022/07/17 00:40:17;;;;;;;10.98;6.20;;;21.50;99.90;;;;;;5016784;28;20112;-54
2022/07/17 00:42:43;;;;;;;8.25;6.40;;;21.50;99.90;;;;;;5022837;28;20040;-53
2022/07/17 00:45:10;;;;;;;9.45;6.38;;;21.40;99.90;;;;;;5024411;28;20034;-53
2022/07/17 00:47:53;;;;;;;8.98;6.18;;;21.30;99.90;;;;;;5024571;28;20065;-53
2022/07/17 00:50:21;;;;;;;9.85;6.10;;;21.30;99.90;;;;;;5020824;28;20260;-54
2022/07/17 00:52:47;;;;;;;8.57;5.85;;;21.20;99.90;;;;;;5024473;28;20396;-53
2022/07/17 00:55:13;;;;;;;10.65;6.07;;;21.10;99.90;;;;;;5024486;28;20083;-53
2022/07/17 00:57:40;;;;;;;8.65;6.25;;;21.00;99.90;;;;;;5042436;28;20488;-54
2022/07/17 01:00:10;;;;;;;10.75;6.18;;;21.10;99.90;;;;;;5051354;28;20132;-54
2022/07/17 01:02:37;;;;;;;10.05;5.68;;;21.10;99.90;;;;;;5026405;28;20049;-53
2022/07/17 01:05:05;;;;;;;8.18;6.05;;;21.00;99.90;;;;;;5059232;28;20037;-53
2022/07/17 01:07:30;;;;;;;6.85;5.13;;;20.90;99.90;;;;;;5025291;28;20048;-53
2022/07/17 01:09:56;;;;;;;8.30;5.55;;;20.90;99.90;;;;;;5046785;28;20057;-54
2022/07/17 01:12:23;;;;;;;9.15;5.43;;;20.90;99.90;;;;;;5050793;28;20036;-54
2022/07/17 01:14:50;;;;;;;8.02;5.35;;;20.80;99.90;;;;;;5051646;28;20029;-53
2022/07/17 01:17:17;;;;;;;7.50;5.80;;;20.80;99.90;;;;;;5051123;28;20045;-54
2022/07/17 01:19:43;;;;;;;7.43;4.63;;;20.80;99.90;;;;;;5051001;28;20033;-53
2022/07/17 01:22:09;;;;;;;6.45;4.65;;;20.90;99.90;;;;;;5051065;28;20044;-53
2022/07/17 01:24:39;;;;;;;6.53;4.30;;;20.90;99.90;;;;;;5050918;28;20040;-53
2022/07/17 01:27:05;;;;;;;7.47;4.63;;;21.00;99.90;;;;;;5050799;28;20025;-53
2022/07/17 01:29:32;;;;;;;7.72;4.68;;;21.00;99.90;;;;;;5028387;28;20041;-53
2022/07/17 01:31:58;;;;;;;9.70;5.22;;;21.10;99.90;;;;;;5022699;28;20025;-54
2022/07/17 01:34:23;;;;;;;11.27;5.03;;;21.10;99.90;;;;;;5027790;28;20041;-54
2022/07/17 01:36:49;;;;;;;6.95;4.65;;;21.10;99.90;;;;;;5002850;28;20042;-53
2022/07/17 01:39:15;;;;;;;9.50;4.57;;;21.10;99.90;;;;;;5022527;28;20022;-54
2022/07/17 01:41:41;;;;;;;9.07;5.10;;;21.10;99.90;;;;;;5024788;28;20076;-53
2022/07/17 01:44:08;;;;;;;13.55;5.65;;;21.20;99.90;;;;;;5004095;28;20445;-53
2022/07/17 01:46:34;;;;;;;11.65;5.80;;;21.20;99.90;;;;;;5019715;28;20030;-54
2022/07/17 01:49:02;;;;;;;10.80;5.88;;;21.20;99.90;;;;;;5018931;28;20491;-53
2022/07/17 01:51:29;;;;;;;10.63;5.40;;;21.20;99.90;;;;;;5023024;28;20092;-53
2022/07/17 01:53:55;;;;;;;6.18;4.90;;;;;;;;;;5023265;28;20030;-54
2022/07/17 01:56:21;;;;;;;11.20;6.18;;;21.00;99.90;;;;;;5020283;28;20037;-53
2022/07/17 01:58:47;;;;;;;9.15;6.20;;;;;;;;;;5025334;28;20034;-54
2022/07/17 02:01:13;;;;;;;9.52;5.60;;;20.50;99.90;;;;;;5051863;28;20037;-53
2022/07/17 02:03:39;;;;;;;11.32;6.60;;;20.50;99.90;;;;;;5035540;28;20040;-53
2022/07/17 02:06:04;;;;;;;7.93;5.97;;;20.30;99.90;;;;;;5022950;28;20489;-53
2022/07/17 02:08:30;;;;;;;7.90;5.50;;;20.30;99.90;;;;;;5022266;28;20109;-53
2022/07/17 02:10:56;;;;;;;9.77;5.90;;;20.30;99.90;;;;;;5025044;28;20460;-53
2022/07/17 02:13:22;;;;;;;9.15;6.30;;;20.40;99.90;;;;;;5022302;28;20033;-53
2022/07/17 02:15:47;;;;;;;12.57;6.97;;;20.40;99.90;;;;;;5022953;28;20021;-53
2022/07/17 02:18:13;;;;;;;10.20;6.68;;;20.40;99.90;;;;;;5021505;28;20385;-53
2022/07/17 02:20:41;;;;;;;8.43;6.60;;;20.50;99.90;;;;;;5020490;28;20393;-53
2022/07/17 02:23:07;;;;;;;8.27;6.20;;;20.60;99.90;;;;;;5021549;28;20476;-53
2022/07/17 02:25:33;;;;;;;8.45;5.63;;;20.60;99.90;;;;;;5022227;28;20362;-53
2022/07/17 02:27:59;;;;;;;6.15;5.45;;;20.70;99.90;;;;;;5020905;28;20045;-54
2022/07/17 02:30:24;;;;;;;8.85;6.28;;;20.60;99.90;;;;;;5021223;28;20055;-53
2022/07/17 02:32:50;;;;;;;9.48;6.30;;;20.60;99.90;;;;;;5020410;28;20026;-53
2022/07/17 02:35:16;;;;;;;9.48;6.22;;;20.50;99.90;;;;;;5022108;28;20060;-53
2022/07/17 02:37:43;;;;;;;9.55;6.45;;;20.50;99.90;;;;;;5022248;28;20034;-53
2022/07/17 02:40:09;;;;;;;11.48;6.22;;;20.40;99.90;;;;;;5028871;28;20084;-53
2022/07/17 02:42:35;;;;;;;6.40;5.75;;;20.30;99.90;;;;;;5030245;28;20038;-53
2022/07/17 02:45:00;;;;;;;8.70;5.80;;;20.20;99.90;;;;;;5055244;28;20088;-53
2022/07/17 02:47:34;;;;;;;8.30;6.07;;;20.00;99.90;;;;;;5022181;28;20550;-53
2022/07/17 02:50:03;;;;;;;7.28;5.93;;;20.00;99.90;;;;;;5046919;28;20046;-53
2022/07/17 02:52:29;;;;;;;7.90;5.95;;;19.90;99.90;;;;;;5020579;28;20033;-53
2022/07/17 02:54:55;;;;;;;7.78;6.38;;;19.80;99.90;;;;;;5024914;28;20030;-53
2022/07/17 02:57:20;;;;;;;7.10;6.30;;;19.70;99.90;;;;;;5027849;28;20042;-53
2022/07/17 02:59:46;;;;;;;7.40;5.88;;;19.70;99.90;;;;;;5024225;28;20034;-53
2022/07/17 03:02:13;;;;;;;9.63;6.28;;;19.60;99.90;;;;;;5020009;28;20025;-53
2022/07/17 03:04:39;;;;;;;7.97;7.18;;;19.60;99.90;;;;;;5021957;28;20021;-54
2022/07/17 03:07:05;;;;;;;10.52;6.53;;;19.60;99.90;;;;;;5023430;28;20061;-53
2022/07/17 03:09:30;;;;;;;7.60;6.40;;;19.60;99.90;;;;;;5019475;28;20500;-53
2022/07/17 03:11:56;;;;;;;8.63;6.60;;;19.50;99.90;;;;;;5017604;28;20045;-53
2022/07/17 03:14:22;;;;;;;12.23;6.88;;;19.50;99.90;;;;;;5019396;28;20046;-53
2022/07/17 03:16:48;;;;;;;10.77;6.50;;;19.60;99.90;;;;;;5021956;28;20034;-53
2022/07/17 03:19:13;;;;;;;10.40;6.97;;;19.60;99.90;;;;;;5021736;28;20057;-53
2022/07/17 03:21:39;;;;;;;7.22;6.30;;;19.70;99.90;;;;;;5021568;28;20022;-53
2022/07/17 03:24:06;;;;;;;7.70;6.57;;;19.80;99.90;;;;;;5021022;28;20068;-53
2022/07/17 03:26:31;;;;;;;9.02;6.40;;;19.90;99.90;;;;;;5017300;28;20440;-53
2022/07/17 03:28:57;;;;;;;9.98;5.93;;;19.90;99.90;;;;;;5019428;28;20771;-53
2022/07/17 03:31:22;;;;;;;8.93;6.00;;;20.00;99.90;;;;;;5021558;28;20091;-53
2022/07/17 03:33:48;;;;;;;14.05;6.88;;;20.00;99.90;;;;;;5020478;28;20022;-54
2022/07/17 03:36:14;;;;;;;9.45;6.00;;;20.10;99.90;;;;;;5022878;28;20661;-53
2022/07/17 03:38:40;;;;;;;9.40;6.30;;;20.20;99.90;;;;;;5019587;28;20120;-53
2022/07/17 03:41:05;;;;;;;7.80;6.32;;;20.30;99.90;;;;;;5028325;28;20472;-53
2022/07/17 03:43:31;;;;;;;9.50;6.30;;;20.30;99.90;;;;;;5019702;28;20465;-53
2022/07/17 03:45:57;;;;;;;9.05;6.00;;;20.30;99.90;;;;;;5054092;28;20037;-53
2022/07/17 03:48:23;;;;;;;8.48;5.55;;;20.40;99.90;;;;;;5021285;28;20557;-53
2022/07/17 03:50:48;;;;;;;18.48;7.85;;;20.40;99.90;;;;;;5021248;28;20037;-53
2022/07/17 03:53:14;;;;;;;7.38;5.57;;;20.50;99.90;;;;;;5028597;28;20072;-53
2022/07/17 03:55:40;;;;;;;7.75;6.03;;;20.50;99.90;;;;;;5022598;28;20031;-53
2022/07/17 03:58:06;;;;;;;10.40;6.68;;;20.50;99.90;;;;;;5020651;28;20030;-53
2022/07/17 04:00:31;;;;;;;10.15;6.63;;;20.50;99.90;;;;;;5021589;28;20087;-53
2022/07/17 04:02:57;;;;;;;7.00;5.72;;;20.60;99.90;;;;;;5020165;28;20079;-53
2022/07/17 04:05:23;;;;;;;8.30;6.00;;;20.60;99.90;;;;;;5020058;28;20030;-53
2022/07/17 04:07:49;;;;;;;8.90;6.88;;;20.60;99.90;;;;;;5027974;28;20037;-53
2022/07/17 04:10:15;;;;;;;11.52;6.40;;;20.80;99.90;;;;;;5020500;28;20042;-53
2022/07/17 04:12:41;;;;;;;7.72;6.13;;;20.80;99.90;;;;;;5019228;28;20045;-53
2022/07/17 04:15:09;;;;;;;9.82;6.47;;;20.80;99.90;;;;;;5020468;28;20025;-53
2022/07/17 04:17:34;;;;;;;10.68;6.25;;;20.90;99.90;;;;;;5019486;28;20537;-53
2022/07/17 04:20:00;;;;;;;8.65;5.75;;;20.90;99.90;;;;;;5016759;28;20131;-53
2022/07/17 04:22:26;;;;;;;10.70;6.15;;;20.90;99.90;;;;;;5020679;28;20036;-53
2022/07/17 04:24:52;;;;;;;10.43;6.75;;;20.90;99.90;;;;;;5020281;28;20025;-53
2022/07/17 04:27:18;;;;;;;8.85;5.78;;;20.90;99.90;;;;;;5029236;28;20049;-53
2022/07/17 04:29:44;;;;;;;8.07;5.95;;;21.00;99.90;;;;;;5031823;28;20061;-53
2022/07/17 04:32:10;;;;;;;8.50;5.85;;;21.10;99.90;;;;;;5020506;28;20029;-54
2022/07/17 04:34:36;;;;;;;11.13;5.28;;;21.30;99.90;;;;;;5020310;28;20029;-53
2022/07/17 04:37:02;;;;;;;8.75;5.75;;;21.40;99.90;;;;;;5050556;28;20048;-53
2022/07/17 04:39:30;;;;;;;9.65;5.03;;;21.50;99.90;;;;;;5033807;28;20104;-54
2022/07/17 04:41:56;;;;;;;11.80;5.68;;;21.70;99.90;;;;;;5023981;28;20034;-53
2022/07/17 04:44:21;;;;;;;14.65;6.90;;;21.90;99.90;;;;;;5031200;28;20095;-53
2022/07/17 04:46:47;;;;;;;7.93;5.43;;;22.00;99.90;;;;;;5022484;28;20034;-53
2022/07/17 04:49:13;;;;;;;7.30;4.88;;;22.10;99.90;;;;;;5037942;28;20055;-53
2022/07/17 04:51:39;;;;;;;7.80;5.28;;;22.20;99.90;;;;;;5032498;28;20482;-53
2022/07/17 04:54:05;;;;;;;10.52;5.43;;;22.30;99.90;;;;;;5028682;28;20033;-53
2022/07/17 04:56:31;;;;;;;10.10;5.75;;;22.40;99.90;;;;;;5024332;28;20032;-53
2022/07/17 04:58:56;;;;;;;10.63;5.43;;;22.60;99.90;;;;;;5028563;28;20096;-53
2022/07/17 05:01:22;;;;;;;8.68;5.72;;;22.70;99.90;;;;;;5025147;28;20030;-53
2022/07/17 05:03:48;;;;;;;9.50;5.90;;;22.70;99.90;;;;;;5023422;28;20045;-53
2022/07/17 05:06:14;;;;;;;9.27;5.53;;;22.80;99.90;;;;;;5023327;28;20025;-54
2022/07/17 05:08:40;;;;;;;9.20;5.32;;;22.80;99.90;;;;;;5037701;28;20044;-53
2022/07/17 05:11:05;;;;;;;9.43;5.25;;;22.80;99.90;;;;;;5024842;28;20046;-53
2022/07/17 05:13:31;;;;;;;8.15;5.10;;;22.80;99.90;;;;;;5024249;28;20037;-53
2022/07/17 05:15:57;;;;;;;7.20;5.20;;;22.80;99.90;;;;;;5029430;28;20025;-53
2022/07/17 05:18:22;;;;;;;9.48;4.57;;;22.90;99.90;;;;;;5036039;28;20128;-53
2022/07/17 05:20:48;;;;;;;8.38;4.90;;;23.00;99.90;;;;;;5022397;28;20030;-53
2022/07/17 05:23:14;;;;;;;10.30;5.43;;;23.00;99.90;;;;;;5055840;28;20042;-53
2022/07/17 05:25:40;;;;;;;9.25;5.07;;;23.10;99.90;;;;;;5023778;28;20030;-53
2022/07/17 05:28:05;;;;;;;8.68;4.80;;;23.10;99.90;;;;;;5023973;28;20025;-53
2022/07/17 05:30:31;;;;;;;6.70;5.30;;;23.00;99.90;;;;;;5023327;28;20484;-53
2022/07/17 05:32:57;;;;;;;10.38;5.55;;;23.10;99.90;;;;;;5022784;28;20120;-53
2022/07/17 05:35:23;;;;;;;7.40;4.65;;;23.20;99.90;;;;;;5021527;28;20096;-54
2022/07/17 05:37:49;;;;;;;8.00;5.20;;;23.30;99.90;;;;;;5055981;28;20037;-53
2022/07/17 05:40:15;;;;;;;13.55;7.05;;;23.30;99.90;;;;;;5030127;28;20044;-53
2022/07/17 05:42:40;;;;;;;8.15;6.07;;;23.40;99.90;;;;;;5025470;28;20112;-53
2022/07/17 05:45:07;;;;;;;11.65;5.80;;;23.40;99.90;;;;;;5024672;28;20042;-53
2022/07/17 05:47:33;;;;;;;10.63;6.22;;;23.50;99.90;;;;;;5019799;28;20058;-53
2022/07/17 05:49:58;;;;;;;9.57;6.10;;;23.50;99.90;;;;;;5024772;28;20080;-53
2022/07/17 05:52:24;;;;;;;6.75;5.53;;;23.70;99.90;;;;;;5022854;28;20061;-53
2022/07/17 05:54:50;;;;;;;12.07;6.00;;;23.70;99.90;;;;;;5029914;28;20103;-54
2022/07/17 05:57:16;;;;;;;8.27;5.40;;;23.70;99.90;;;;;;5022427;28;20041;-54
2022/07/17 05:59:42;;;;;;;9.15;6.00;;;23.90;99.90;;;;;;5027707;28;20485;-53
2022/07/17 06:02:07;;;;;;;5.88;4.68;;;24.00;99.90;;;;;;5020983;28;20024;-53
2022/07/17 06:04:33;;;;;;;6.00;4.60;;;24.10;99.90;;;;;;5021605;28;20072;-53
2022/07/17 06:06:59;;;;;;;8.93;5.53;;;24.10;99.90;;;;;;5022943;28;20093;-54
2022/07/17 06:09:25;;;;;;;12.30;6.10;;;24.20;99.90;;;;;;5022228;28;20034;-53
2022/07/17 06:11:51;;;;;;;10.48;6.35;;;24.30;99.90;;;;;;5058038;28;20464;-53
2022/07/17 06:14:17;;;;;;;10.90;7.18;;;24.20;99.90;;;;;;5057937;28;20040;-53
2022/07/17 06:16:43;;;;;;;8.98;6.43;;;24.30;99.90;;;;;;5059203;28;20089;-54
2022/07/17 06:19:09;;;;;;;11.52;6.32;;;;;;;;;;5033102;28;20041;-53
2022/07/17 06:21:35;;;;;;;10.55;6.53;;;24.60;99.90;;;;;;5060105;28;20032;-53
2022/07/17 06:24:00;;;;;;;8.23;6.25;;;24.50;99.90;;;;;;5060040;28;20052;-53
2022/07/17 06:26:26;;;;;;;8.82;5.72;;;24.60;99.90;;;;;;5032895;28;20384;-53
2022/07/17 06:28:52;;;;;;;9.68;6.03;;;24.60;99.90;;;;;;5034453;28;20041;-53
2022/07/17 06:31:18;;;;;;;11.63;5.00;;;;;;;;;;5057946;28;20045;-54
2022/07/17 06:33:46;;;;;;;7.50;4.30;;;24.80;99.90;;;;;;5059212;28;20032;-53
2022/07/17 06:36:12;;;;;;;6.90;4.80;;;;;;;;;;5059537;28;20503;-54
2022/07/17 06:38:38;;;;;;;9.93;3.72;;;;;;;;;;5058678;28;20038;-53
2022/07/17 06:41:04;;;;;;;6.03;3.38;;;25.10;99.90;;;;;;5066586;28;20117;-53
2022/07/17 06:43:30;;;;;;;10.18;3.95;;;25.10;99.90;;;;;;5025833;28;20130;-54
2022/07/17 06:45:56;;;;;;;10.57;4.10;;;25.20;99.90;;;;;;5040274;28;20081;-53
2022/07/17 06:48:22;;;;;;;7.75;4.32;;;25.20;99.90;;;;;;5020193;28;20036;-53
2022/07/17 06:50:48;;;;;;;7.68;4.60;;;25.30;99.90;;;;;;5030066;28;20045;-53
2022/07/17 06:53:14;;;;;;;9.80;4.35;;;25.30;99.90;;;;;;5022707;28;20025;-53
2022/07/17 06:55:40;;;;;;;4.93;4.10;;;25.50;99.90;;;;;;5020013;28;20033;-53
2022/07/17 06:58:06;;;;;;;5.82;3.40;;;25.80;99.90;;;;;;5021533;28;20040;-53
2022/07/17 07:00:32;;;;;;;7.75;3.13;;;25.80;99.90;;;;;;5021832;28;20113;-53
2022/07/17 07:02:58;;;;;;;5.63;3.35;;;25.80;99.90;;;;;;5021957;28;20030;-53
2022/07/17 07:05:24;;;;;;;5.13;3.03;;;;;;;;;;5022093;28;20033;-53
2022/07/17 07:07:50;;;;;;;5.55;3.15;;;26.20;99.90;;;;;;5021894;28;20065;-53
2022/07/17 07:10:17;;;;;;;4.60;3.05;;;;;;;;;;5017660;28;20084;-54
2022/07/17 07:12:43;;;;;;;3.80;3.03;;;;;;;;;;5020021;28;20472;-54
2022/07/17 07:15:09;;;;;;;7.20;2.55;;;26.80;99.90;;;;;;5021305;28;20116;-53
2022/07/17 07:17:36;;;;;;;5.07;2.88;;;27.00;99.90;;;;;;5020799;28;20121;-54
2022/07/17 07:20:04;;;;;;;4.55;3.13;;;;;;;;;;5021191;28;20025;-53
2022/07/17 07:22:31;;;;;;;5.82;2.33;;;27.60;99.90;;;;;;5019844;28;20030;-53
2022/07/17 07:24:57;;;;;;;6.25;3.08;;;;;;;;;;5019943;28;20483;-53
2022/07/17 07:27:23;;;;;;;5.95;2.55;;;27.50;99.90;;;;;;5011817;28;20037;-53
2022/07/17 07:29:49;;;;;;;3.97;2.40;;;;;;;;;;5021700;28;20401;-54
2022/07/17 07:32:15;;;;;;;5.47;2.45;;;;;;;;;;5021618;28;20382;-53
2022/07/17 07:34:41;;;;;;;9.90;2.63;;;;;;;;;;5022065;28;20096;-53
2022/07/17 07:37:07;;;;;;;4.13;2.10;;;;;;;;;;5020714;28;20041;-54
2022/07/17 07:39:34;;;;;;;3.20;2.40;;;;;;;;;;5021776;28;20037;-54
2022/07/17 07:41:59;;;;;;;5.65;2.00;;;28.80;99.00;;;;;;5035773;28;20042;-54
2022/07/17 07:44:26;;;;;;;6.20;2.42;;;28.60;98.00;;;;;;5021436;28;20567;-54
2022/07/17 07:46:52;;;;;;;5.32;1.90;;;28.70;98.20;;;;;;5028394;28;20405;-54
2022/07/17 07:49:18;;;;;;;3.80;1.75;;;28.50;96.00;;;;;;5043349;28;20398;-54
2022/07/17 07:51:43;;;;;;;3.05;1.70;;;28.20;92.70;;;;;;5021203;28;20032;-53
2022/07/17 07:54:09;;;;;;;4.63;1.63;;;28.40;91.90;;;;;;5020869;28;20030;-53
2022/07/17 07:56:36;;;;;;;3.05;1.70;;;28.50;90.10;;;;;;5019358;28;20022;-53
2022/07/17 07:59:02;;;;;;;3.78;1.80;;;28.70;93.60;;;;;;5019465;28;20088;-54
2022/07/17 08:01:29;;;;;;;5.75;1.85;;;;;;;;;;5022335;28;20033;-54
2022/07/17 08:03:55;;;;;;;4.07;1.80;;;;;;;;;;5021473;28;20117;-54
2022/07/17 08:06:21;;;;;;;5.28;1.95;;;;;;;;;;5021459;28;20032;-54
2022/07/17 08:08:47;;;;;;;5.03;1.85;;;;;;;;;;5026735;28;20511;-53
2022/07/17 08:11:14;;;;;;;3.10;1.75;;;;;;;;;;5020818;28;20095;-54
2022/07/17 08:13:41;;;;;;;3.03;1.70;;;;;;;;;;5034884;28;20477;-53
2022/07/17 08:16:07;;;;;;;4.38;1.63;;;;;;;;;;5039596;28;20289;-54
2022/07/17 08:18:33;;;;;;;4.97;1.50;;;29.80;84.50;;;;;;5039750;28;20492;-53
2022/07/17 08:20:59;;;;;;;3.92;1.60;;;29.80;83.10;;;;;;5024466;28;20362;-53
2022/07/17 08:23:24;;;;;;;2.75;1.33;;;29.60;83.80;;;;;;5022822;28;20029;-54
2022/07/17 08:25:50;;;;;;;4.10;1.42;;;29.50;82.20;;;;;;5023323;28;20033;-53
2022/07/17 08:28:16;;;;;;;4.28;1.60;;;29.30;82.60;;;;;;5020671;28;20030;-54
2022/07/17 08:30:42;;;;;;;5.63;1.73;;;29.60;82.50;;;;;;5031833;28;20053;-54
2022/07/17 08:33:08;;;;;;;2.25;1.60;;;29.70;82.90;;;;;;5037650;28;20053;-54
2022/07/17 08:35:35;;;;;;;4.38;2.17;;;;;;;;;;5022839;28;20026;-54
2022/07/17 08:38:01;;;;;;;2.75;1.60;;;30.70;84.40;;;;;;5021387;28;20088;-54
2022/07/17 08:40:29;;;;;;;3.05;1.65;;;;;;;;;;5032032;28;20100;-54
2022/07/17 08:42:56;;;;;;;3.55;1.90;;;;;;;;;;5025237;28;20041;-54
2022/07/17 08:45:23;;;;;;;3.28;1.70;;;;;;;;;;5023890;28;20040;-54
2022/07/17 08:47:51;;;;;;;5.63;1.80;;;31.50;81.20;;;;;;5025155;28;20055;-53
2022/07/17 08:50:23;;;;;;;3.63;2.00;;;31.50;81.30;;;;;;5024381;28;20038;-54
2022/07/17 08:52:49;;;;;;;3.10;1.83;;;31.40;80.50;;;;;;5024347;28;20679;-54
2022/07/17 08:55:15;;;;;;;5.40;2.08;;;31.40;80.10;;;;;;5012157;28;20113;-53
2022/07/17 08:57:44;;;;;;;5.30;2.00;;;31.20;81.40;;;;;;5041061;28;20183;-54
2022/07/17 09:00:11;;;;;;;5.72;2.50;;;;;;;;;;5025791;28;20547;-54
2022/07/17 09:02:38;;;;;;;2.92;1.50;;;31.00;90.00;;;;;;5022142;28;20062;-53
2022/07/17 09:05:05;;;;;;;5.57;2.00;;;31.10;91.90;;;;;;5030992;28;20599;-53
2022/07/17 09:07:32;;;;;;;2.28;1.75;;;31.40;95.10;;;;;;5055367;28;20404;-56
2022/07/17 09:09:58;;;;;;;5.63;2.03;;;;;;;;;;5024405;28;20048;-51
2022/07/17 09:12:28;;;;;;;3.55;1.70;;;;;;;;;;5021348;28;20381;-52
2022/07/17 09:14:55;;;;;;;4.15;1.73;;;;;;;;;;5031689;28;20026;-50
2022/07/17 09:17:22;;;;;;;3.72;2.00;;;31.90;86.60;;;;;;5023643;28;20112;-49
2022/07/17 09:19:48;;;;;;;7.22;1.85;;;31.70;94.90;;;;;;5022884;28;20048;-52
2022/07/17 09:22:25;;;;;;;3.45;1.70;;;31.80;94.00;;;;;;5090286;28;20045;-50
2022/07/17 09:24:56;;;;;;;3.60;1.80;;;31.70;79.30;;;;;;5020760;28;20478;-51
2022/07/17 09:27:24;;;;;;;4.13;1.50;;;31.90;78.30;;;;;;5023190;28;20033;-53
2022/07/17 09:29:55;;;;;;;5.18;1.52;;;31.90;77.90;;;;;;5017684;28;20076;-54
2022/07/17 09:32:24;;;;;;;3.15;1.67;;;31.60;77.20;;;;;;5015539;28;20030;-54
2022/07/17 09:34:53;;;;;;;3.38;1.55;;;31.70;77.30;;;;;;5023546;28;20516;-55
2022/07/17 09:37:18;;;;;;;4.43;1.73;;;31.50;76.20;;;;;;5023543;28;20113;-50
2022/07/17 09:39:44;;;;;;;3.53;1.80;;;31.70;76.80;;;;;;5029376;28;20116;-51
2022/07/17 09:42:24;;;;;;;5.78;1.45;;;31.40;77.00;;;;;;5019292;28;20037;-52
2022/07/17 09:45:08;;;;;;;2.17;1.60;;;31.80;76.80;;;;;;5023913;28;20557;-51
2022/07/17 09:47:37;;;;;;;3.33;1.60;;;31.70;76.10;;;;;;5038307;28;20096;-53
2022/07/17 09:50:04;;;;;;;2.00;1.40;;;;;;;;;;5023636;28;20041;-50
2022/07/17 09:52:31;;;;;;;3.58;1.23;;;;;;;;;;5028206;28;20378;-51
2022/07/17 09:54:58;;;;;;;4.28;1.70;;;;;;;;;;5023243;28;20025;-52
2022/07/17 09:57:28;;;;;;;2.72;1.80;;;33.50;76.50;;;;;;5051529;28;20121;-51
2022/07/17 09:59:58;;;;;;;3.80;1.50;;;33.50;75.50;;;;;;5025262;28;20049;-53
2022/07/17 10:02:24;;;;;;;4.60;1.77;;;33.50;74.10;;;;;;5025569;28;20033;-50
2022/07/17 10:04:52;;;;;;;5.45;1.63;;;33.00;73.90;;;;;;5022269;28;20073;-51
2022/07/17 10:07:21;;;;;;;2.53;1.80;;;33.40;74.60;;;;;;5022328;28;20025;-53
2022/07/17 10:09:47;;;;;;;3.25;1.50;;;;;;;;;;5022159;28;20029;-51
2022/07/17 10:12:14;;;;;;;3.25;1.67;;;34.00;93.50;;;;;;5015096;28;20042;-52
2022/07/17 10:14:41;;;;;;;2.53;1.50;;;34.00;95.80;;;;;;5020759;28;20069;-53
2022/07/17 10:17:11;;;;;;;4.45;1.67;;;33.90;74.10;;;;;;5022298;28;20045;-52
2022/07/17 10:19:56;;;;;;;8.77;2.72;;;33.20;72.70;;;;;;5022976;28;20029;-52
2022/07/17 10:22:24;;;;;;;4.00;1.50;;;33.50;74.40;;;;;;5014957;28;20021;-51
2022/07/17 10:25:04;;;;;;;3.72;1.60;;;33.10;72.80;;;;;;5046648;28;20046;-55
2022/07/17 10:27:31;;;;;;;4.35;1.70;;;32.40;71.70;;;;;;5020028;28;20044;-51
2022/07/17 10:30:04;;;;;;;5.63;1.40;;;32.70;73.20;;;;;;5029501;28;20057;-54
2022/07/17 10:32:31;;;;;;;2.42;1.30;;;33.20;73.10;;;;;;5023307;28;20037;-52
2022/07/17 10:35:05;;;;;;;2.90;1.50;;;32.80;72.50;;;;;;5018883;28;20034;-53
2022/07/17 10:37:33;;;;;;;2.35;1.30;;;;;;;;;;5020471;28;20393;-55
2022/07/17 10:40:10;;;;;;;2.38;1.20;;;33.60;98.50;;;;;;5029644;28;20017;-51
2022/07/17 10:42:45;;;;;;;3.10;1.52;;;33.60;96.20;;;;;;5020256;28;20117;-51
2022/07/17 10:45:12;;;;;;;3.33;1.33;;;33.40;96.20;;;;;;5020460;28;20465;-51
2022/07/17 10:47:47;;;;;;;4.72;1.55;;;;;;;;;;5018139;28;20034;-53
2022/07/17 10:50:15;;;;;;;1.52;1.20;;;;;;;;;;5017423;28;20034;-52
2022/07/17 10:52:41;;;;;;;2.30;1.30;;;34.20;69.80;;;;;;5019293;28;20041;-51
2022/07/17 10:55:19;;;;;;;3.90;1.15;;;34.10;70.00;;;;;;5021094;28;20034;-51
2022/07/17 10:57:46;;;;;;;3.80;1.33;;;33.70;70.40;;;;;;5014486;28;20045;-54
2022/07/17 11:00:12;;;;;;;3.15;1.30;;;33.50;69.80;;;;;;5022113;28;20038;-53
2022/07/17 11:02:38;;;;;;;3.28;1.50;;;33.70;70.50;;;;;;5029350;28;20136;-51
2022/07/17 11:05:08;;;;;;;3.60;1.30;;;33.70;70.90;;;;;;5022508;28;20112;-52
2022/07/17 11:07:34;;;;;;;3.30;1.50;;;33.90;70.50;;;;;;5022070;28;20028;-52
2022/07/17 11:10:02;;;;;;;1.80;1.13;;;34.10;70.90;;;;;;5020743;28;20038;-54
2022/07/17 11:12:34;;;;;;;3.83;1.48;;;;;;;;;;5020831;28;20736;-51
2022/07/17 11:15:04;;;;;;;4.47;1.33;;;34.00;87.90;;;;;;5023215;28;20042;-55
2022/07/17 11:17:30;;;;;;;4.90;1.70;;;33.50;70.70;;;;;;5016196;28;20087;-52
2022/07/17 11:19:58;;;;;;;3.70;1.48;;;34.10;72.80;;;;;;5018291;28;20107;-54
2022/07/17 11:22:24;;;;;;;1.52;1.30;;;33.70;70.00;;;;;;5017342;28;20041;-51
2022/07/17 11:24:50;;;;;;;1.20;1.02;;;33.70;69.70;;;;;;5018153;28;20026;-53
2022/07/17 11:27:20;;;;;;;1.60;1.20;;;;;;;;;;5018815;28;20049;-53
2022/07/17 11:29:46;;;;;;;3.95;1.42;;;33.90;70.60;;;;;;5015740;28;20071;-53
2022/07/17 11:32:13;;;;;;;3.75;1.65;;;33.90;71.40;;;;;;5020876;28;20048;-51
2022/07/17 11:34:38;;;;;;;2.17;1.08;;;33.40;69.80;;;;;;5015539;28;20084;-54
2022/07/17 11:37:07;;;;;;;3.97;1.00;;;33.50;70.00;;;;;;5001539;28;20531;-51
2022/07/17 11:39:46;;;;;;;1.58;1.05;;;33.50;70.20;;;;;;5026918;28;20096;-52
2022/07/17 11:42:14;;;;;;;1.55;1.15;;;;;;;;;;5014474;28;20540;-53
2022/07/17 11:44:40;;;;;;;2.65;1.45;;;;;;;;;;5017195;28;20461;-53
2022/07/17 11:47:06;;;;;;;2.15;1.20;;;;;;;;;;5024617;28;20033;-50
2022/07/17 11:49:35;;;;;;;1.60;1.10;;;;;;;;;;5017678;28;20025;-54
2022/07/17 11:52:15;;;;;;;5.00;1.20;;;34.50;69.20;;;;;;5025527;28;20025;-51
2022/07/17 11:54:56;;;;;;;3.30;1.05;;;33.80;68.20;;;;;;5014814;28;20341;-55
2022/07/17 11:57:25;;;;;;;1.70;1.52;;;33.50;69.00;;;;;;5023413;28;20110;-53
2022/07/17 11:59:52;;;;;;;5.63;1.70;;;33.70;69.50;;;;;;5024865;28;20030;-51
2022/07/17 12:02:22;;;;;;;2.88;1.35;;;34.00;69.90;;;;;;5013757;28;20128;-51
2022/07/17 12:04:53;;;;;;;2.67;1.50;;;33.20;68.60;;;;;;5021218;28;20029;-53
2022/07/17 12:07:20;;;;;;;1.25;1.13;;;33.40;69.90;;;;;;5016963;28;20041;-55
2022/07/17 12:09:46;;;;;;;6.43;4.97;;;33.40;69.90;;;;;;5013052;28;20040;-54
2022/07/17 12:12:26;;;;;;;4.97;2.70;;;33.50;70.30;;;;;;5018641;28;20437;-52
2022/07/17 12:14:57;;;;;;;1.85;1.15;;;33.70;71.10;;;;;;5012217;28;20400;-52
2022/07/17 12:17:24;;;;;;;4.05;1.42;;;33.50;69.10;;;;;;5012358;28;20181;-51
2022/07/17 12:19:51;;;;;;;2.28;1.50;;;;;;;;;;5012492;28;20037;-52
2022/07/17 12:22:17;;;;;;;1.98;1.00;;;;;;;;;;5011631;28;20117;-51
2022/07/17 12:24:45;;;;;;;1.73;1.55;;;;;;;;;;5011734;28;20042;-51
2022/07/17 12:27:13;;;;;;;4.05;1.20;;;;;;;;;;5009101;28;20029;-51
2022/07/17 12:29:40;;;;;;;2.00;1.00;;;34.00;69.10;;;;;;4995561;28;20042;-53
2022/07/17 12:32:15;;;;;;;1.98;1.23;;;33.80;69.10;;;;;;5012419;28;20030;-50
2022/07/17 12:34:46;;;;;;;6.28;1.40;;;33.80;69.30;;;;;;5012250;28;20049;-54
2022/07/17 12:37:13;;;;;;;1.60;1.20;;;33.20;68.50;;;;;;5012096;28;20034;-53
2022/07/17 12:39:39;;;;;;;4.72;1.33;;;33.30;69.70;;;;;;5029302;28;20030;-53
2022/07/17 12:42:05;;;;;;;3.22;1.23;;;33.40;69.70;;;;;;5012068;28;20359;-54
2022/07/17 12:44:31;;;;;;;2.72;1.30;;;33.80;69.90;;;;;;5010242;28;20030;-52
2022/07/17 12:46:57;;;;;;;8.15;1.77;;;;;;;;;;5021491;28;20049;-54
2022/07/17 12:49:25;;;;;;;5.05;2.15;;;34.10;69.20;;;;;;5013455;28;20030;-53
2022/07/17 12:51:51;;;;;;;4.25;1.55;;;;;;;;;;5001435;28;20076;-54
2022/07/17 12:54:17;;;;;;;2.58;1.10;;;34.10;70.20;;;;;;5024412;28;20132;-53
2022/07/17 12:56:43;;;;;;;3.13;1.33;;;33.80;74.80;;;;;;5024369;28;20691;-50
2022/07/17 12:59:09;;;;;;;6.28;1.50;;;33.70;74.60;;;;;;5036518;28;20435;-54
2022/07/17 13:01:35;;;;;;;3.22;1.80;;;33.90;73.10;;;;;;5014647;28;20553;-51